sensor_id;sensor_type;location;lat;lon;timestamp;P1;durP1;ratioP1;P2;durP2;ratioP2
68089;SDS011;54880;50.986;6.990;2023-11-21T00:00:38;11.90;;;4.43;;
68089;SDS011;54880;50.986;6.990;2023-11-21T00:03:03;12.23;;;4.67;;
68089;SDS011;54880;50.986;6.990;2023-11-21T00:05:29;10.40;;;4.53;;
68089;SDS011;54880;50.986;6.990;2023-11-21T00:07:54;11.52;;;4.43;;
68089;SDS011;54880;50.986;6.990;2023-11-21T00:10:19;13.13;;;4.30;;
68089;SDS011;54880;50.986;6.990;2023-11-21T00:12:45;13.00;;;4.70;;
68089;SDS011;54880;50.986;6.990;2023-11-21T00:15:13;11.93;;;4.37;;
68089;SDS011;54880;50.986;6.990;2023-11-21T00:17:38;12.90;;;4.78;;
68089;SDS011;54880;50.986;6.990;2023-11-21T00:20:05;9.90;;;4.47;;
68089;SDS011;54880;50.986;6.990;2023-11-21T00:22:32;11.00;;;4.38;;
68089;SDS011;54880;50.986;6.990;2023-11-21T00:24:57;10.75;;;4.72;;
68089;SDS011;54880;50.986;6.990;2023-11-21T00:27:23;11.87;;;5.10;;
68089;SDS011;54880;50.986;6.990;2023-11-21T00:29:48;14.17;;;5.80;;
68089;SDS011;54880;50.986;6.990;2023-11-21T00:32:13;12.03;;;5.37;;
68089;SDS011;54880;50.986;6.990;2023-11-21T00:34:38;12.20;;;5.03;;
68089;SDS011;54880;50.986;6.990;2023-11-21T00:37:05;14.85;;;5.80;;
68089;SDS011;54880;50.986;6.990;2023-11-21T00:39:30;12.93;;;5.03;;
68089;SDS011;54880;50.986;6.990;2023-11-21T00:41:55;11.63;;;5.27;;
68089;SDS011;54880;50.986;6.990;2023-11-21T00:44:20;14.80;;;6.23;;
68089;SDS011;54880;50.986;6.990;2023-11-21T00:46:46;12.60;;;4.97;;
68089;SDS011;54880;50.986;6.990;2023-11-21T00:49:11;13.73;;;5.60;;
68089;SDS011;54880;50.986;6.990;2023-11-21T00:51:36;16.37;;;6.03;;
68089;SDS011;54880;50.986;6.990;2023-11-21T00:54:02;12.77;;;5.37;;
68089;SDS011;54880;50.986;6.990;2023-11-21T00:56:27;14.33;;;5.90;;
68089;SDS011;54880;50.986;6.990;2023-11-21T00:58:53;16.13;;;6.68;;
68089;SDS011;54880;50.986;6.990;2023-11-21T01:01:19;14.00;;;6.30;;
68089;SDS011;54880;50.986;6.990;2023-11-21T01:03:45;13.63;;;5.83;;
68089;SDS011;54880;50.986;6.990;2023-11-21T01:06:12;13.27;;;5.78;;
68089;SDS011;54880;50.986;6.990;2023-11-21T01:08:37;15.60;;;6.50;;
68089;SDS011;54880;50.986;6.990;2023-11-21T01:11:02;12.95;;;5.85;;
68089;SDS011;54880;50.986;6.990;2023-11-21T01:13:28;15.43;;;6.68;;
68089;SDS011;54880;50.986;6.990;2023-11-21T01:15:54;14.23;;;6.60;;
68089;SDS011;54880;50.986;6.990;2023-11-21T01:18:20;15.30;;;6.10;;
68089;SDS011;54880;50.986;6.990;2023-11-21T01:20:45;15.50;;;5.67;;
68089;SDS011;54880;50.986;6.990;2023-11-21T01:23:12;16.05;;;5.95;;
68089;SDS011;54880;50.986;6.990;2023-11-21T01:25:37;14.35;;;5.68;;
68089;SDS011;54880;50.986;6.990;2023-11-21T01:28:03;15.65;;;6.18;;
68089;SDS011;54880;50.986;6.990;2023-11-21T01:30:28;14.57;;;5.60;;
68089;SDS011;54880;50.986;6.990;2023-11-21T01:32:53;14.47;;;5.80;;
68089;SDS011;54880;50.986;6.990;2023-11-21T01:35:18;14.33;;;6.37;;
68089;SDS011;54880;50.986;6.990;2023-11-21T01:37:44;14.23;;;6.23;;
68089;SDS011;54880;50.986;6.990;2023-11-21T01:40:10;13.53;;;5.87;;
68089;SDS011;54880;50.986;6.990;2023-11-21T01:42:38;11.93;;;5.68;;
68089;SDS011;54880;50.986;6.990;2023-11-21T01:45:04;13.37;;;5.97;;
68089;SDS011;54880;50.986;6.990;2023-11-21T01:47:31;13.27;;;6.30;;
68089;SDS011;54880;50.986;6.990;2023-11-21T01:49:56;14.02;;;6.57;;
68089;SDS011;54880;50.986;6.990;2023-11-21T01:52:22;16.17;;;6.50;;
68089;SDS011;54880;50.986;6.990;2023-11-21T01:54:47;16.40;;;7.67;;
68089;SDS011;54880;50.986;6.990;2023-11-21T01:57:12;14.23;;;7.50;;
68089;SDS011;54880;50.986;6.990;2023-11-21T01:59:38;18.85;;;8.23;;
68089;SDS011;54880;50.986;6.990;2023-11-21T02:02:07;17.30;;;7.77;;
68089;SDS011;54880;50.986;6.990;2023-11-21T02:04:33;16.80;;;7.80;;
68089;SDS011;54880;50.986;6.990;2023-11-21T02:06:59;20.50;;;8.67;;
68089;SDS011;54880;50.986;6.990;2023-11-21T02:09:27;15.00;;;7.07;;
68089;SDS011;54880;50.986;6.990;2023-11-21T02:11:54;16.05;;;7.18;;
68089;SDS011;54880;50.986;6.990;2023-11-21T02:14:20;15.80;;;6.80;;
68089;SDS011;54880;50.986;6.990;2023-11-21T02:16:47;14.73;;;6.67;;
68089;SDS011;54880;50.986;6.990;2023-11-21T02:19:16;17.70;;;7.28;;
68089;SDS011;54880;50.986;6.990;2023-11-21T02:21:45;15.35;;;7.40;;
68089;SDS011;54880;50.986;6.990;2023-11-21T02:24:10;17.50;;;6.72;;
68089;SDS011;54880;50.986;6.990;2023-11-21T02:26:36;15.17;;;7.17;;
68089;SDS011;54880;50.986;6.990;2023-11-21T02:29:01;17.13;;;6.80;;
68089;SDS011;54880;50.986;6.990;2023-11-21T02:31:29;17.13;;;7.77;;
68089;SDS011;54880;50.986;6.990;2023-11-21T02:33:55;15.77;;;7.35;;
68089;SDS011;54880;50.986;6.990;2023-11-21T02:36:20;20.47;;;8.23;;
68089;SDS011;54880;50.986;6.990;2023-11-21T02:38:46;19.75;;;8.25;;
68089;SDS011;54880;50.986;6.990;2023-11-21T02:41:12;18.00;;;7.77;;
68089;SDS011;54880;50.986;6.990;2023-11-21T02:43:37;20.83;;;7.60;;
68089;SDS011;54880;50.986;6.990;2023-11-21T02:46:03;17.95;;;7.97;;
68089;SDS011;54880;50.986;6.990;2023-11-21T02:48:29;18.67;;;7.53;;
68089;SDS011;54880;50.986;6.990;2023-11-21T02:50:56;17.15;;;7.80;;
68089;SDS011;54880;50.986;6.990;2023-11-21T02:53:21;20.00;;;9.63;;
68089;SDS011;54880;50.986;6.990;2023-11-21T02:55:49;24.60;;;9.68;;
68089;SDS011;54880;50.986;6.990;2023-11-21T02:58:14;21.20;;;8.83;;
68089;SDS011;54880;50.986;6.990;2023-11-21T03:00:40;20.23;;;8.63;;
68089;SDS011;54880;50.986;6.990;2023-11-21T03:03:06;21.07;;;9.00;;
68089;SDS011;54880;50.986;6.990;2023-11-21T03:05:32;22.80;;;9.20;;
68089;SDS011;54880;50.986;6.990;2023-11-21T03:08:00;22.20;;;9.55;;
68089;SDS011;54880;50.986;6.990;2023-11-21T03:10:25;20.67;;;9.77;;
68089;SDS011;54880;50.986;6.990;2023-11-21T03:12:51;19.73;;;9.63;;
68089;SDS011;54880;50.986;6.990;2023-11-21T03:15:16;24.37;;;10.27;;
68089;SDS011;54880;50.986;6.990;2023-11-21T03:17:42;21.63;;;9.43;;
68089;SDS011;54880;50.986;6.990;2023-11-21T03:20:07;27.50;;;9.43;;
68089;SDS011;54880;50.986;6.990;2023-11-21T03:22:35;20.27;;;9.70;;
68089;SDS011;54880;50.986;6.990;2023-11-21T03:25:01;27.80;;;9.37;;
68089;SDS011;54880;50.986;6.990;2023-11-21T03:27:26;16.90;;;8.53;;
68089;SDS011;54880;50.986;6.990;2023-11-21T03:29:51;18.03;;;8.20;;
68089;SDS011;54880;50.986;6.990;2023-11-21T03:32:17;19.87;;;8.03;;
68089;SDS011;54880;50.986;6.990;2023-11-21T03:34:55;19.33;;;8.93;;
68089;SDS011;54880;50.986;6.990;2023-11-21T03:37:24;21.77;;;7.60;;
68089;SDS011;54880;50.986;6.990;2023-11-21T03:39:50;16.27;;;7.80;;
68089;SDS011;54880;50.986;6.990;2023-11-21T03:42:15;20.13;;;8.73;;
68089;SDS011;54880;50.986;6.990;2023-11-21T03:44:40;16.77;;;8.07;;
68089;SDS011;54880;50.986;6.990;2023-11-21T03:47:06;19.87;;;8.03;;
68089;SDS011;54880;50.986;6.990;2023-11-21T03:49:32;18.95;;;8.55;;
68089;SDS011;54880;50.986;6.990;2023-11-21T03:51:58;17.90;;;8.23;;
68089;SDS011;54880;50.986;6.990;2023-11-21T03:54:23;23.47;;;8.80;;
68089;SDS011;54880;50.986;6.990;2023-11-21T03:56:48;22.90;;;9.07;;
68089;SDS011;54880;50.986;6.990;2023-11-21T03:59:14;19.15;;;8.45;;
68089;SDS011;54880;50.986;6.990;2023-11-21T04:01:39;18.50;;;8.23;;
68089;SDS011;54880;50.986;6.990;2023-11-21T04:04:04;19.63;;;8.30;;
68089;SDS011;54880;50.986;6.990;2023-11-21T04:06:30;18.63;;;8.23;;
68089;SDS011;54880;50.986;6.990;2023-11-21T04:08:57;21.02;;;8.48;;
68089;SDS011;54880;50.986;6.990;2023-11-21T04:11:23;22.83;;;8.87;;
68089;SDS011;54880;50.986;6.990;2023-11-21T04:13:48;21.07;;;7.97;;
68089;SDS011;54880;50.986;6.990;2023-11-21T04:16:13;17.97;;;8.23;;
68089;SDS011;54880;50.986;6.990;2023-11-21T04:18:39;18.80;;;8.70;;
68089;SDS011;54880;50.986;6.990;2023-11-21T04:21:05;20.47;;;8.27;;
68089;SDS011;54880;50.986;6.990;2023-11-21T04:23:30;19.52;;;8.45;;
68089;SDS011;54880;50.986;6.990;2023-11-21T04:25:57;19.30;;;8.43;;
68089;SDS011;54880;50.986;6.990;2023-11-21T04:28:22;21.33;;;8.77;;
68089;SDS011;54880;50.986;6.990;2023-11-21T04:30:48;22.70;;;8.67;;
68089;SDS011;54880;50.986;6.990;2023-11-21T04:33:13;24.10;;;9.07;;
68089;SDS011;54880;50.986;6.990;2023-11-21T04:35:38;17.75;;;8.20;;
68089;SDS011;54880;50.986;6.990;2023-11-21T04:38:03;23.17;;;9.18;;
68089;SDS011;54880;50.986;6.990;2023-11-21T04:40:29;25.58;;;10.55;;
68089;SDS011;54880;50.986;6.990;2023-11-21T04:42:54;23.20;;;9.67;;
68089;SDS011;54880;50.986;6.990;2023-11-21T04:45:19;25.07;;;9.60;;
68089;SDS011;54880;50.986;6.990;2023-11-21T04:47:44;19.97;;;9.43;;
68089;SDS011;54880;50.986;6.990;2023-11-21T04:50:10;22.87;;;9.40;;
68089;SDS011;54880;50.986;6.990;2023-11-21T04:52:35;24.90;;;9.80;;
68089;SDS011;54880;50.986;6.990;2023-11-21T04:55:01;24.07;;;11.27;;
68089;SDS011;54880;50.986;6.990;2023-11-21T04:57:27;25.35;;;11.60;;
68089;SDS011;54880;50.986;6.990;2023-11-21T04:59:53;23.05;;;10.23;;
68089;SDS011;54880;50.986;6.990;2023-11-21T05:02:19;21.53;;;10.63;;
68089;SDS011;54880;50.986;6.990;2023-11-21T05:04:44;22.83;;;9.90;;
68089;SDS011;54880;50.986;6.990;2023-11-21T05:07:10;26.20;;;10.13;;
68089;SDS011;54880;50.986;6.990;2023-11-21T05:09:35;22.77;;;9.97;;
68089;SDS011;54880;50.986;6.990;2023-11-21T05:12:01;23.60;;;9.20;;
68089;SDS011;54880;50.986;6.990;2023-11-21T05:14:26;22.27;;;10.07;;
68089;SDS011;54880;50.986;6.990;2023-11-21T05:16:52;22.08;;;9.18;;
68089;SDS011;54880;50.986;6.990;2023-11-21T05:19:17;23.97;;;10.33;;
68089;SDS011;54880;50.986;6.990;2023-11-21T05:21:42;20.40;;;9.97;;
68089;SDS011;54880;50.986;6.990;2023-11-21T05:24:08;23.30;;;9.93;;
68089;SDS011;54880;50.986;6.990;2023-11-21T05:26:33;21.60;;;9.53;;
68089;SDS011;54880;50.986;6.990;2023-11-21T05:28:58;21.90;;;10.07;;
68089;SDS011;54880;50.986;6.990;2023-11-21T05:31:24;23.00;;;10.93;;
68089;SDS011;54880;50.986;6.990;2023-11-21T05:33:49;21.57;;;9.90;;
68089;SDS011;54880;50.986;6.990;2023-11-21T05:36:14;25.23;;;10.70;;
68089;SDS011;54880;50.986;6.990;2023-11-21T05:38:39;25.57;;;11.00;;
68089;SDS011;54880;50.986;6.990;2023-11-21T05:41:05;28.00;;;10.60;;
68089;SDS011;54880;50.986;6.990;2023-11-21T05:43:30;25.47;;;11.30;;
68089;SDS011;54880;50.986;6.990;2023-11-21T05:45:56;24.55;;;10.73;;
68089;SDS011;54880;50.986;6.990;2023-11-21T05:48:21;28.10;;;10.70;;
68089;SDS011;54880;50.986;6.990;2023-11-21T05:50:46;26.87;;;11.27;;
68089;SDS011;54880;50.986;6.990;2023-11-21T05:53:13;25.75;;;11.85;;
68089;SDS011;54880;50.986;6.990;2023-11-21T05:55:40;25.70;;;11.55;;
68089;SDS011;54880;50.986;6.990;2023-11-21T05:58:06;28.53;;;11.73;;
68089;SDS011;54880;50.986;6.990;2023-11-21T06:00:32;25.85;;;11.98;;
68089;SDS011;54880;50.986;6.990;2023-11-21T06:02:58;28.00;;;11.43;;
68089;SDS011;54880;50.986;6.990;2023-11-21T06:05:23;24.90;;;11.80;;
68089;SDS011;54880;50.986;6.990;2023-11-21T06:07:49;26.67;;;11.10;;
68089;SDS011;54880;50.986;6.990;2023-11-21T06:10:15;21.90;;;9.77;;
68089;SDS011;54880;50.986;6.990;2023-11-21T06:12:42;26.17;;;11.23;;
68089;SDS011;54880;50.986;6.990;2023-11-21T06:15:08;26.00;;;10.77;;
68089;SDS011;54880;50.986;6.990;2023-11-21T06:17:37;25.85;;;11.32;;
68089;SDS011;54880;50.986;6.990;2023-11-21T06:20:06;24.30;;;11.55;;
68089;SDS011;54880;50.986;6.990;2023-11-21T06:22:36;30.37;;;11.77;;
68089;SDS011;54880;50.986;6.990;2023-11-21T06:25:01;26.25;;;10.80;;
68089;SDS011;54880;50.986;6.990;2023-11-21T06:27:27;25.63;;;11.10;;
68089;SDS011;54880;50.986;6.990;2023-11-21T06:29:53;27.83;;;11.17;;
68089;SDS011;54880;50.986;6.990;2023-11-21T06:32:18;23.63;;;11.33;;
68089;SDS011;54880;50.986;6.990;2023-11-21T06:34:45;29.10;;;11.70;;
68089;SDS011;54880;50.986;6.990;2023-11-21T06:37:10;25.07;;;11.63;;
68089;SDS011;54880;50.986;6.990;2023-11-21T06:39:37;27.00;;;11.20;;
68089;SDS011;54880;50.986;6.990;2023-11-21T06:42:02;27.43;;;11.07;;
68089;SDS011;54880;50.986;6.990;2023-11-21T06:44:27;29.37;;;11.20;;
68089;SDS011;54880;50.986;6.990;2023-11-21T06:46:53;26.00;;;11.07;;
68089;SDS011;54880;50.986;6.990;2023-11-21T06:49:18;27.00;;;11.20;;
68089;SDS011;54880;50.986;6.990;2023-11-21T06:51:43;25.40;;;10.97;;
68089;SDS011;54880;50.986;6.990;2023-11-21T06:54:08;25.20;;;11.83;;
68089;SDS011;54880;50.986;6.990;2023-11-21T06:56:34;28.23;;;11.20;;
68089;SDS011;54880;50.986;6.990;2023-11-21T06:58:59;25.47;;;11.23;;
68089;SDS011;54880;50.986;6.990;2023-11-21T07:01:24;26.93;;;11.53;;
68089;SDS011;54880;50.986;6.990;2023-11-21T07:03:49;28.33;;;11.87;;
68089;SDS011;54880;50.986;6.990;2023-11-21T07:06:15;25.70;;;12.30;;
68089;SDS011;54880;50.986;6.990;2023-11-21T07:08:40;29.70;;;11.57;;
68089;SDS011;54880;50.986;6.990;2023-11-21T07:11:05;22.33;;;10.82;;
68089;SDS011;54880;50.986;6.990;2023-11-21T07:13:31;34.50;;;11.80;;
68089;SDS011;54880;50.986;6.990;2023-11-21T07:15:57;27.90;;;12.60;;
68089;SDS011;54880;50.986;6.990;2023-11-21T07:18:23;27.13;;;12.57;;
68089;SDS011;54880;50.986;6.990;2023-11-21T07:20:49;24.83;;;11.73;;
68089;SDS011;54880;50.986;6.990;2023-11-21T07:23:14;29.27;;;12.10;;
68089;SDS011;54880;50.986;6.990;2023-11-21T07:25:40;27.05;;;13.07;;
68089;SDS011;54880;50.986;6.990;2023-11-21T07:28:06;31.15;;;12.60;;
68089;SDS011;54880;50.986;6.990;2023-11-21T07:30:32;28.73;;;12.40;;
68089;SDS011;54880;50.986;6.990;2023-11-21T07:32:57;27.37;;;13.23;;
68089;SDS011;54880;50.986;6.990;2023-11-21T07:35:22;27.77;;;12.10;;
68089;SDS011;54880;50.986;6.990;2023-11-21T07:37:48;29.47;;;11.73;;
68089;SDS011;54880;50.986;6.990;2023-11-21T07:40:14;28.67;;;12.45;;
68089;SDS011;54880;50.986;6.990;2023-11-21T07:42:39;29.50;;;12.63;;
68089;SDS011;54880;50.986;6.990;2023-11-21T07:45:05;27.60;;;12.37;;
68089;SDS011;54880;50.986;6.990;2023-11-21T07:47:32;29.33;;;12.88;;
68089;SDS011;54880;50.986;6.990;2023-11-21T07:49:59;34.00;;;13.02;;
68089;SDS011;54880;50.986;6.990;2023-11-21T07:52:24;32.20;;;13.00;;
68089;SDS011;54880;50.986;6.990;2023-11-21T07:54:50;29.83;;;12.13;;
68089;SDS011;54880;50.986;6.990;2023-11-21T07:57:15;26.88;;;11.48;;
68089;SDS011;54880;50.986;6.990;2023-11-21T07:59:41;26.17;;;11.70;;
68089;SDS011;54880;50.986;6.990;2023-11-21T08:02:06;30.00;;;11.70;;
68089;SDS011;54880;50.986;6.990;2023-11-21T08:04:32;26.30;;;10.67;;
68089;SDS011;54880;50.986;6.990;2023-11-21T08:06:57;28.23;;;10.67;;
68089;SDS011;54880;50.986;6.990;2023-11-21T08:09:22;25.50;;;10.23;;
68089;SDS011;54880;50.986;6.990;2023-11-21T08:11:49;23.75;;;10.27;;
68089;SDS011;54880;50.986;6.990;2023-11-21T08:14:14;24.23;;;10.27;;
68089;SDS011;54880;50.986;6.990;2023-11-21T08:16:40;25.17;;;10.15;;
68089;SDS011;54880;50.986;6.990;2023-11-21T08:19:05;22.97;;;10.63;;
68089;SDS011;54880;50.986;6.990;2023-11-21T08:21:31;27.27;;;11.60;;
68089;SDS011;54880;50.986;6.990;2023-11-21T08:23:56;21.77;;;10.52;;
68089;SDS011;54880;50.986;6.990;2023-11-21T08:26:21;26.17;;;10.60;;
68089;SDS011;54880;50.986;6.990;2023-11-21T08:28:47;22.73;;;11.47;;
68089;SDS011;54880;50.986;6.990;2023-11-21T08:31:13;28.92;;;12.07;;
68089;SDS011;54880;50.986;6.990;2023-11-21T08:33:38;30.57;;;12.33;;
68089;SDS011;54880;50.986;6.990;2023-11-21T08:36:10;35.70;;;14.40;;
68089;SDS011;54880;50.986;6.990;2023-11-21T08:38:37;33.08;;;12.50;;
68089;SDS011;54880;50.986;6.990;2023-11-21T08:41:04;31.80;;;13.23;;
68089;SDS011;54880;50.986;6.990;2023-11-21T08:43:29;30.88;;;13.70;;
68089;SDS011;54880;50.986;6.990;2023-11-21T08:45:55;36.20;;;13.73;;
68089;SDS011;54880;50.986;6.990;2023-11-21T08:48:21;37.92;;;16.95;;
68089;SDS011;54880;50.986;6.990;2023-11-21T08:50:46;40.07;;;16.27;;
68089;SDS011;54880;50.986;6.990;2023-11-21T08:53:11;35.20;;;15.03;;
68089;SDS011;54880;50.986;6.990;2023-11-21T08:55:36;41.07;;;15.43;;
68089;SDS011;54880;50.986;6.990;2023-11-21T08:58:02;42.90;;;15.53;;
68089;SDS011;54880;50.986;6.990;2023-11-21T09:00:30;37.30;;;14.57;;
68089;SDS011;54880;50.986;6.990;2023-11-21T09:02:55;35.67;;;15.27;;
68089;SDS011;54880;50.986;6.990;2023-11-21T09:05:20;38.00;;;14.23;;
68089;SDS011;54880;50.986;6.990;2023-11-21T09:07:46;38.70;;;15.47;;
68089;SDS011;54880;50.986;6.990;2023-11-21T09:10:13;41.72;;;17.05;;
68089;SDS011;54880;50.986;6.990;2023-11-21T09:12:39;33.35;;;15.07;;
68089;SDS011;54880;50.986;6.990;2023-11-21T09:15:05;46.80;;;16.37;;
68089;SDS011;54880;50.986;6.990;2023-11-21T09:17:31;41.22;;;15.75;;
68089;SDS011;54880;50.986;6.990;2023-11-21T09:19:57;38.55;;;15.35;;
68089;SDS011;54880;50.986;6.990;2023-11-21T09:22:22;38.43;;;14.47;;
68089;SDS011;54880;50.986;6.990;2023-11-21T09:24:49;39.60;;;14.20;;
68089;SDS011;54880;50.986;6.990;2023-11-21T09:27:15;43.70;;;16.13;;
68089;SDS011;54880;50.986;6.990;2023-11-21T09:29:40;43.87;;;17.03;;
68089;SDS011;54880;50.986;6.990;2023-11-21T09:32:05;48.23;;;17.23;;
68089;SDS011;54880;50.986;6.990;2023-11-21T09:34:33;41.97;;;16.63;;
68089;SDS011;54880;50.986;6.990;2023-11-21T09:36:58;42.22;;;16.77;;
68089;SDS011;54880;50.986;6.990;2023-11-21T09:39:23;49.03;;;17.23;;
68089;SDS011;54880;50.986;6.990;2023-11-21T09:41:52;43.25;;;17.08;;
68089;SDS011;54880;50.986;6.990;2023-11-21T09:44:23;46.47;;;16.70;;
68089;SDS011;54880;50.986;6.990;2023-11-21T09:46:50;42.95;;;16.40;;
68089;SDS011;54880;50.986;6.990;2023-11-21T09:49:20;43.35;;;16.30;;
68089;SDS011;54880;50.986;6.990;2023-11-21T09:51:47;48.28;;;17.50;;
68089;SDS011;54880;50.986;6.990;2023-11-21T09:54:14;44.20;;;17.42;;
68089;SDS011;54880;50.986;6.990;2023-11-21T09:56:41;49.23;;;16.07;;
68089;SDS011;54880;50.986;6.990;2023-11-21T09:59:07;41.92;;;16.77;;
68089;SDS011;54880;50.986;6.990;2023-11-21T10:01:38;51.33;;;18.52;;
68089;SDS011;54880;50.986;6.990;2023-11-21T10:04:04;48.88;;;17.45;;
68089;SDS011;54880;50.986;6.990;2023-11-21T10:06:31;49.67;;;19.17;;
68089;SDS011;54880;50.986;6.990;2023-11-21T10:08:56;49.77;;;19.23;;
68089;SDS011;54880;50.986;6.990;2023-11-21T10:11:24;50.00;;;18.33;;
68089;SDS011;54880;50.986;6.990;2023-11-21T10:13:51;52.40;;;19.17;;
68089;SDS011;54880;50.986;6.990;2023-11-21T10:16:19;55.40;;;18.90;;
68089;SDS011;54880;50.986;6.990;2023-11-21T10:18:46;51.35;;;18.65;;
68089;SDS011;54880;50.986;6.990;2023-11-21T10:21:12;50.40;;;19.00;;
68089;SDS011;54880;50.986;6.990;2023-11-21T10:23:37;44.43;;;17.50;;
68089;SDS011;54880;50.986;6.990;2023-11-21T10:26:03;48.63;;;18.67;;
68089;SDS011;54880;50.986;6.990;2023-11-21T10:28:29;47.30;;;18.48;;
68089;SDS011;54880;50.986;6.990;2023-11-21T10:30:54;52.73;;;18.50;;
68089;SDS011;54880;50.986;6.990;2023-11-21T10:33:26;48.40;;;17.85;;
68089;SDS011;54880;50.986;6.990;2023-11-21T10:35:52;45.73;;;17.53;;
68089;SDS011;54880;50.986;6.990;2023-11-21T10:38:20;53.45;;;18.75;;
68089;SDS011;54880;50.986;6.990;2023-11-21T10:40:48;51.08;;;18.73;;
68089;SDS011;54880;50.986;6.990;2023-11-21T10:43:14;44.95;;;17.77;;
68089;SDS011;54880;50.986;6.990;2023-11-21T10:45:43;43.53;;;17.63;;
68089;SDS011;54880;50.986;6.990;2023-11-21T10:48:09;47.80;;;18.53;;
68089;SDS011;54880;50.986;6.990;2023-11-21T10:50:35;49.53;;;18.13;;
68089;SDS011;54880;50.986;6.990;2023-11-21T10:53:02;50.13;;;18.90;;
68089;SDS011;54880;50.986;6.990;2023-11-21T10:55:28;44.63;;;18.10;;
68089;SDS011;54880;50.986;6.990;2023-11-21T10:57:54;47.37;;;18.33;;
68089;SDS011;54880;50.986;6.990;2023-11-21T11:00:22;43.60;;;16.58;;
68089;SDS011;54880;50.986;6.990;2023-11-21T11:02:51;40.72;;;15.93;;
68089;SDS011;54880;50.986;6.990;2023-11-21T11:05:18;43.25;;;16.88;;
68089;SDS011;54880;50.986;6.990;2023-11-21T11:07:44;37.30;;;15.27;;
68089;SDS011;54880;50.986;6.990;2023-11-21T11:10:10;41.15;;;16.33;;
68089;SDS011;54880;50.986;6.990;2023-11-21T11:12:39;37.53;;;15.85;;
68089;SDS011;54880;50.986;6.990;2023-11-21T11:15:05;41.15;;;16.35;;
68089;SDS011;54880;50.986;6.990;2023-11-21T11:17:31;40.75;;;15.60;;
68089;SDS011;54880;50.986;6.990;2023-11-21T11:19:58;37.60;;;14.93;;
68089;SDS011;54880;50.986;6.990;2023-11-21T11:22:43;37.67;;;14.83;;
68089;SDS011;54880;50.986;6.990;2023-11-21T11:25:16;32.93;;;13.50;;
68089;SDS011;54880;50.986;6.990;2023-11-21T11:27:54;36.05;;;13.05;;
68089;SDS011;54880;50.986;6.990;2023-11-21T11:33:03;37.53;;;12.73;;
68089;SDS011;54880;50.986;6.990;2023-11-21T11:38:03;33.53;;;13.70;;
68089;SDS011;54880;50.986;6.990;2023-11-21T11:40:38;35.28;;;13.98;;
68089;SDS011;54880;50.986;6.990;2023-11-21T11:43:05;36.53;;;13.47;;
68089;SDS011;54880;50.986;6.990;2023-11-21T11:45:32;34.22;;;12.75;;
68089;SDS011;54880;50.986;6.990;2023-11-21T11:47:59;35.83;;;13.63;;
68089;SDS011;54880;50.986;6.990;2023-11-21T11:50:25;36.67;;;12.65;;
68089;SDS011;54880;50.986;6.990;2023-11-21T11:52:54;28.83;;;11.30;;
68089;SDS011;54880;50.986;6.990;2023-11-21T11:55:22;27.63;;;12.10;;
68089;SDS011;54880;50.986;6.990;2023-11-21T12:02:49;34.15;;;12.95;;
68089;SDS011;54880;50.986;6.990;2023-11-21T12:05:15;33.20;;;11.93;;
68089;SDS011;54880;50.986;6.990;2023-11-21T12:08:02;35.45;;;12.52;;
68089;SDS011;54880;50.986;6.990;2023-11-21T12:10:30;37.92;;;13.32;;
68089;SDS011;54880;50.986;6.990;2023-11-21T12:12:56;36.95;;;12.45;;
68089;SDS011;54880;50.986;6.990;2023-11-21T12:15:23;36.15;;;12.38;;
68089;SDS011;54880;50.986;6.990;2023-11-21T12:17:48;33.87;;;12.70;;
68089;SDS011;54880;50.986;6.990;2023-11-21T12:20:14;33.80;;;12.73;;
68089;SDS011;54880;50.986;6.990;2023-11-21T12:22:44;29.10;;;11.10;;
68089;SDS011;54880;50.986;6.990;2023-11-21T12:25:09;30.27;;;12.07;;
68089;SDS011;54880;50.986;6.990;2023-11-21T12:27:35;30.67;;;12.43;;
68089;SDS011;54880;50.986;6.990;2023-11-21T12:30:00;32.42;;;13.15;;
68089;SDS011;54880;50.986;6.990;2023-11-21T12:32:25;35.50;;;12.43;;
68089;SDS011;54880;50.986;6.990;2023-11-21T12:34:51;32.67;;;12.40;;
68089;SDS011;54880;50.986;6.990;2023-11-21T12:37:17;29.83;;;12.50;;
68089;SDS011;54880;50.986;6.990;2023-11-21T12:39:42;36.57;;;12.97;;
68089;SDS011;54880;50.986;6.990;2023-11-21T12:42:08;38.03;;;12.57;;
68089;SDS011;54880;50.986;6.990;2023-11-21T12:44:34;37.80;;;13.00;;
68089;SDS011;54880;50.986;6.990;2023-11-21T12:46:59;36.63;;;13.70;;
68089;SDS011;54880;50.986;6.990;2023-11-21T12:49:24;39.87;;;14.23;;
68089;SDS011;54880;50.986;6.990;2023-11-21T12:51:50;38.43;;;13.23;;
68089;SDS011;54880;50.986;6.990;2023-11-21T12:54:15;38.08;;;13.77;;
68089;SDS011;54880;50.986;6.990;2023-11-21T12:56:41;42.53;;;14.00;;
68089;SDS011;54880;50.986;6.990;2023-11-21T12:59:06;40.27;;;13.40;;
68089;SDS011;54880;50.986;6.990;2023-11-21T13:01:31;36.50;;;14.47;;
68089;SDS011;54880;50.986;6.990;2023-11-21T13:03:57;42.73;;;14.33;;
68089;SDS011;54880;50.986;6.990;2023-11-21T13:06:23;39.00;;;14.55;;
68089;SDS011;54880;50.986;6.990;2023-11-21T13:08:51;37.07;;;13.50;;
68089;SDS011;54880;50.986;6.990;2023-11-21T13:11:16;44.25;;;15.43;;
68089;SDS011;54880;50.986;6.990;2023-11-21T13:13:43;38.27;;;13.77;;
68089;SDS011;54880;50.986;6.990;2023-11-21T13:16:11;44.45;;;14.38;;
68089;SDS011;54880;50.986;6.990;2023-11-21T13:18:37;37.28;;;12.70;;
68089;SDS011;54880;50.986;6.990;2023-11-21T13:21:05;35.30;;;12.80;;
68089;SDS011;54880;50.986;6.990;2023-11-21T13:23:37;36.22;;;12.60;;
68089;SDS011;54880;50.986;6.990;2023-11-21T13:26:03;34.70;;;12.43;;
68089;SDS011;54880;50.986;6.990;2023-11-21T13:28:29;35.33;;;12.57;;
68089;SDS011;54880;50.986;6.990;2023-11-21T13:30:58;40.57;;;13.30;;
68089;SDS011;54880;50.986;6.990;2023-11-21T13:33:28;43.70;;;13.23;;
68089;SDS011;54880;50.986;6.990;2023-11-21T13:35:53;42.63;;;13.73;;
68089;SDS011;54880;50.986;6.990;2023-11-21T13:38:20;34.07;;;12.30;;
68089;SDS011;54880;50.986;6.990;2023-11-21T13:43:14;40.45;;;13.98;;
68089;SDS011;54880;50.986;6.990;2023-11-21T13:45:40;41.80;;;13.63;;
68089;SDS011;54880;50.986;6.990;2023-11-21T13:48:06;35.23;;;13.47;;
68089;SDS011;54880;50.986;6.990;2023-11-21T13:50:35;39.97;;;13.45;;
68089;SDS011;54880;50.986;6.990;2023-11-21T13:53:01;39.15;;;15.02;;
68089;SDS011;54880;50.986;6.990;2023-11-21T13:55:44;38.30;;;13.35;;
68089;SDS011;54880;50.986;6.990;2023-11-21T13:58:09;37.03;;;13.38;;
68089;SDS011;54880;50.986;6.990;2023-11-21T14:00:42;34.35;;;12.68;;
68089;SDS011;54880;50.986;6.990;2023-11-21T14:03:11;40.35;;;12.68;;
68089;SDS011;54880;50.986;6.990;2023-11-21T14:05:44;40.60;;;12.80;;
68089;SDS011;54880;50.986;6.990;2023-11-21T14:08:12;33.42;;;12.75;;
68089;SDS011;54880;50.986;6.990;2023-11-21T14:10:39;35.50;;;13.32;;
68089;SDS011;54880;50.986;6.990;2023-11-21T14:13:14;38.42;;;13.40;;
68089;SDS011;54880;50.986;6.990;2023-11-21T14:15:41;42.65;;;12.95;;
68089;SDS011;54880;50.986;6.990;2023-11-21T14:18:10;39.03;;;14.57;;
68089;SDS011;54880;50.986;6.990;2023-11-21T14:20:38;40.83;;;14.90;;
68089;SDS011;54880;50.986;6.990;2023-11-21T14:23:05;42.72;;;13.50;;
68089;SDS011;54880;50.986;6.990;2023-11-21T14:25:34;43.35;;;15.13;;
68089;SDS011;54880;50.986;6.990;2023-11-21T14:28:02;41.50;;;16.00;;
68089;SDS011;54880;50.986;6.990;2023-11-21T14:30:28;42.67;;;16.52;;
68089;SDS011;54880;50.986;6.990;2023-11-21T14:32:57;48.15;;;16.63;;